createdAt,value
2022-08-05T00:00:16.690Z,8.55
2022-08-05T00:02:51.345Z,7.25
2022-08-05T00:06:01.666Z,10.93
2022-08-05T00:08:32.761Z,7.78
2022-08-05T00:11:01.424Z,7.00
2022-08-05T00:13:38.715Z,8.07
2022-08-05T00:16:10.947Z,8.38
2022-08-05T00:18:42.162Z,5.13
2022-08-05T00:21:10.970Z,7.88
2022-08-05T00:23:45.767Z,9.48
2022-08-05T00:26:23.197Z,5.10
2022-08-05T00:28:51.771Z,5.20
2022-08-05T00:31:54.420Z,6.75
2022-08-05T00:34:56.987Z,4.43
2022-08-05T00:37:09.721Z,5.03
2022-08-05T00:39:41.577Z,4.70
2022-08-05T00:42:31.938Z,4.63
2022-08-05T00:45:00.570Z,6.82
2022-08-05T00:47:53.267Z,5.68
2022-08-05T00:50:16.892Z,6.15
2022-08-05T00:52:45.402Z,3.95
2022-08-05T00:55:15.047Z,4.38
2022-08-05T00:57:58.581Z,4.43
2022-08-05T01:00:28.476Z,5.38
2022-08-05T01:02:57.085Z,6.55
2022-08-05T01:05:27.463Z,5.25
2022-08-05T01:08:40.576Z,7.38
2022-08-05T01:10:51.574Z,5.32
2022-08-05T01:13:57.811Z,8.38
2022-08-05T01:16:30.171Z,8.13
2022-08-05T01:19:05.528Z,16.80
2022-08-05T01:21:53.684Z,8.38
2022-08-05T01:24:42.800Z,8.13
2022-08-05T01:27:25.817Z,11.38
2022-08-05T01:30:01.975Z,12.45
2022-08-05T01:32:33.263Z,13.10
2022-08-05T01:35:03.860Z,13.57
2022-08-05T01:37:46.971Z,13.77
2022-08-05T01:40:18.014Z,10.75
2022-08-05T01:42:47.504Z,12.00
2022-08-05T01:45:17.877Z,10.60
2022-08-05T01:47:50.214Z,9.52
2022-08-05T01:50:28.534Z,8.10
2022-08-05T01:53:00.931Z,11.27
2022-08-05T01:55:36.204Z,11.30
2022-08-05T01:58:09.365Z,13.98
2022-08-05T02:00:50.027Z,11.32
2022-08-05T02:03:29.079Z,14.27
2022-08-05T02:06:03.791Z,17.70
2022-08-05T02:08:58.137Z,10.48
2022-08-05T02:11:34.164Z,10.50
2022-08-05T02:14:08.527Z,11.73
2022-08-05T02:16:52.269Z,13.32
2022-08-05T02:19:34.298Z,13.82
2022-08-05T02:22:09.897Z,14.15
2022-08-05T02:25:00.197Z,14.55
2022-08-05T02:27:58.423Z,14.38
2022-08-05T02:30:19.158Z,15.43
2022-08-05T02:32:51.692Z,14.57
2022-08-05T02:35:28.021Z,13.95
2022-08-05T02:38:02.136Z,18.30
2022-08-05T02:40:31.219Z,12.85
2022-08-05T02:43:00.818Z,15.15
2022-08-05T02:45:52.080Z,14.98
2022-08-05T02:48:20.037Z,16.38
2022-08-05T02:51:00.393Z,15.90
2022-08-05T02:53:39.370Z,17.08
2022-08-05T02:56:09.540Z,17.60
2022-08-05T02:58:43.773Z,20.02
2022-08-05T03:01:16.830Z,16.52
2022-08-05T03:04:03.043Z,17.17
2022-08-05T03:06:55.387Z,18.17
2022-08-05T03:09:36.549Z,19.65
2022-08-05T03:12:07.854Z,17.90
2022-08-05T03:14:45.678Z,17.15
2022-08-05T03:17:13.929Z,18.83
2022-08-05T03:19:45.777Z,18.75
2022-08-05T03:22:16.824Z,18.88
2022-08-05T03:24:51.040Z,21.67
2022-08-05T03:27:21.929Z,21.90
2022-08-05T03:30:08.111Z,24.85
2022-08-05T03:32:37.187Z,19.15
2022-08-05T03:35:08.987Z,21.02
2022-08-05T03:37:41.727Z,18.52
2022-08-05T03:40:15.260Z,16.02
2022-08-05T03:42:52.995Z,19.95
2022-08-05T03:45:23.340Z,21.40
2022-08-05T03:47:51.877Z,19.60
2022-08-05T03:50:27.822Z,18.15
2022-08-05T03:55:34.040Z,19.08
2022-08-05T03:56:17.110Z,19.13
2022-08-05T03:58:48.426Z,22.83
2022-08-05T04:01:22.048Z,19.10
2022-08-05T04:04:09.228Z,21.63
2022-08-05T04:06:47.767Z,24.98
2022-08-05T04:09:20.435Z,22.33
2022-08-05T04:11:56.799Z,19.35
2022-08-05T04:14:30.437Z,19.55
2022-08-05T04:16:59.930Z,25.05
2022-08-05T04:19:29.086Z,16.75
2022-08-05T04:22:10.007Z,19.00
2022-08-05T04:24:43.869Z,16.75
2022-08-05T04:27:13.100Z,19.98
2022-08-05T04:29:41.820Z,19.23
2022-08-05T04:32:10.562Z,19.05
2022-08-05T04:34:43.050Z,17.77
2022-08-05T04:37:12.946Z,17.92
2022-08-05T04:39:41.138Z,20.23
2022-08-05T04:42:09.983Z,18.73
2022-08-05T04:44:39.066Z,16.85
2022-08-05T04:47:09.697Z,20.80
2022-08-05T04:50:01.485Z,19.58
2022-08-05T04:52:28.737Z,19.60
2022-08-05T04:54:57.793Z,24.88
2022-08-05T04:57:28.514Z,24.08
2022-08-05T04:59:58.360Z,20.67
2022-08-05T05:02:41.997Z,20.98
2022-08-05T05:05:26.363Z,20.20
2022-08-05T05:08:02.412Z,21.77
2022-08-05T05:10:33.118Z,20.80
2022-08-05T05:13:04.353Z,18.90
2022-08-05T05:15:57.365Z,19.35
2022-08-05T05:18:31.610Z,21.10
2022-08-05T05:21:03.459Z,20.50
2022-08-05T05:23:39.310Z,21.23
2022-08-05T05:26:28.460Z,25.25
2022-08-05T05:29:01.284Z,23.15
2022-08-05T05:34:02.176Z,22.98
2022-08-05T05:36:31.651Z,23.65
2022-08-05T05:39:03.817Z,22.98
2022-08-05T05:41:40.622Z,22.15
2022-08-05T05:44:34.490Z,28.95
2022-08-05T05:47:04.181Z,27.55
2022-08-05T05:49:35.779Z,26.48
2022-08-05T05:52:07.291Z,27.02
2022-08-05T05:54:50.427Z,27.75
2022-08-05T05:57:19.548Z,27.08
2022-08-05T05:59:47.876Z,26.17
2022-08-05T06:02:17.335Z,26.05
2022-08-05T06:05:01.385Z,25.20
2022-08-05T06:07:41.797Z,27.30
2022-08-05T06:10:12.642Z,26.25
2022-08-05T06:12:42.326Z,22.88
2022-08-05T06:15:16.389Z,25.38
2022-08-05T06:17:53.352Z,31.38
2022-08-05T06:20:47.764Z,28.08
2022-08-05T06:23:15.949Z,23.10
2022-08-05T06:26:12.684Z,25.92
2022-08-05T06:28:33.524Z,25.00
2022-08-05T06:31:02.018Z,21.73
2022-08-05T06:34:07.071Z,21.50
2022-08-05T06:36:27.349Z,21.30
2022-08-05T06:39:09.015Z,20.10
2022-08-05T06:41:40.552Z,19.40
2022-08-05T06:44:09.351Z,19.23
2022-08-05T06:46:37.339Z,17.05
2022-08-05T06:49:05.743Z,15.65
2022-08-05T06:51:35.701Z,17.40
2022-08-05T06:54:08.759Z,17.15
2022-08-05T06:56:41.405Z,17.90
2022-08-05T06:59:23.211Z,17.05
2022-08-05T07:01:52.941Z,16.83
2022-08-05T07:04:21.221Z,17.67
2022-08-05T07:06:50.420Z,14.15
2022-08-05T07:09:18.618Z,17.40
2022-08-05T07:11:51.431Z,22.40
2022-08-05T07:14:37.487Z,29.98
2022-08-05T07:18:00.227Z,34.15
2022-08-05T07:20:31.336Z,26.95
2022-08-05T07:22:43.214Z,27.27
2022-08-05T07:25:55.407Z,23.27
2022-08-05T07:28:09.726Z,25.30
2022-08-05T07:30:40.579Z,21.38
2022-08-05T07:33:17.112Z,21.48
2022-08-05T07:36:04.525Z,19.17
2022-08-05T07:38:43.369Z,19.77
2022-08-05T07:42:08.235Z,18.13
2022-08-05T07:44:14.323Z,19.35
2022-08-05T07:46:49.307Z,16.83
2022-08-05T07:49:18.893Z,13.43
2022-08-05T07:51:53.422Z,13.55
2022-08-05T07:54:31.699Z,15.30
2022-08-05T07:57:22.539Z,15.88
2022-08-05T07:59:51.871Z,16.30
2022-08-05T08:02:26.848Z,16.75
2022-08-05T08:04:59.925Z,16.17
2022-08-05T08:07:29.145Z,16.77
2022-08-05T08:10:08.944Z,16.48
2022-08-05T08:12:49.806Z,16.70
2022-08-05T08:15:37.110Z,14.75
2022-08-05T08:18:13.758Z,14.50
2022-08-05T08:21:00.126Z,13.35
2022-08-05T08:24:01.106Z,13.02
2022-08-05T08:26:29.364Z,11.60
2022-08-05T08:29:09.659Z,14.35
2022-08-05T08:31:48.695Z,12.98
2022-08-05T08:34:16.820Z,11.70
2022-08-05T08:36:54.012Z,11.50
2022-08-05T08:39:24.821Z,12.23
2022-08-05T08:41:59.707Z,12.80
2022-08-05T08:45:19.797Z,14.48
2022-08-05T08:48:05.565Z,10.82
2022-08-05T08:50:30.997Z,11.00
2022-08-05T08:53:08.036Z,11.10
2022-08-05T08:56:04.146Z,12.30
2022-08-05T08:58:44.036Z,12.48
2022-08-05T09:01:17.984Z,11.88
2022-08-05T09:03:55.611Z,10.18
2022-08-05T09:06:29.147Z,11.55
2022-08-05T09:08:59.895Z,11.50
2022-08-05T09:11:51.004Z,12.02
2022-08-05T09:14:57.152Z,12.43
2022-08-05T09:17:08.253Z,11.88
2022-08-05T09:20:01.933Z,11.68
2022-08-05T09:22:32.109Z,10.77
2022-08-05T09:25:13.502Z,10.65
2022-08-05T09:28:05.338Z,11.60
2022-08-05T09:30:30.271Z,11.00
2022-08-05T09:33:02.578Z,10.50
2022-08-05T09:35:34.329Z,11.55
2022-08-05T09:38:12.254Z,10.70
2022-08-05T09:40:52.131Z,10.70
2022-08-05T09:43:41.366Z,10.63
2022-08-05T09:46:27.617Z,13.90
2022-08-05T09:49:07.606Z,11.10
2022-08-05T09:51:49.598Z,9.98
2022-08-05T09:54:30.999Z,10.77
2022-08-05T09:57:01.741Z,9.40
2022-08-05T09:59:35.159Z,8.63
2022-08-05T10:02:05.306Z,9.10
2022-08-05T10:04:38.412Z,8.52
2022-08-05T10:07:20.366Z,10.20
2022-08-05T10:10:13.756Z,8.50
2022-08-05T10:12:49.708Z,10.32
2022-08-05T10:15:24.174Z,8.93
2022-08-05T10:18:13.157Z,9.65
2022-08-05T10:20:47.737Z,9.75
2022-08-05T10:23:34.321Z,9.00
2022-08-05T10:26:14.600Z,8.25
2022-08-05T10:28:43.904Z,12.10
2022-08-05T10:32:48.446Z,9.55
2022-08-05T10:34:02.315Z,8.63
2022-08-05T10:36:31.285Z,9.38
2022-08-05T10:39:10.326Z,9.10
2022-08-05T10:41:54.999Z,9.52
2022-08-05T10:44:26.730Z,11.20
2022-08-05T10:46:56.926Z,11.25
2022-08-05T10:49:26.901Z,8.88
2022-08-05T10:52:03.323Z,10.50
2022-08-05T10:55:03.484Z,8.38
2022-08-05T10:57:33.838Z,9.93
2022-08-05T11:00:19.127Z,10.18
2022-08-05T11:03:23.668Z,9.98
2022-08-05T11:06:15.837Z,11.18
2022-08-05T11:09:16.977Z,12.10
2022-08-05T11:11:53.699Z,11.27
2022-08-05T11:17:59.519Z,14.13
2022-08-05T11:20:41.957Z,14.60
2022-08-05T11:24:05.093Z,15.85
2022-08-05T11:26:33.557Z,17.85
2022-08-05T11:29:12.756Z,16.17
2022-08-05T11:31:57.203Z,15.40
2022-08-05T11:34:40.155Z,15.00
2022-08-05T11:38:29.277Z,15.63
2022-08-05T11:41:34.775Z,14.30
2022-08-05T11:44:04.552Z,14.70
2022-08-05T11:46:37.810Z,15.55
2022-08-05T11:49:25.678Z,14.80
2022-08-05T11:51:54.368Z,12.88
2022-08-05T11:54:33.383Z,14.95
2022-08-05T11:57:08.588Z,14.10
2022-08-05T11:59:51.918Z,12.57
2022-08-05T12:02:30.230Z,11.93
2022-08-05T12:05:06.968Z,11.80
2022-08-05T12:08:07.860Z,11.77
2022-08-05T12:10:43.633Z,11.88
2022-08-05T12:13:28.020Z,12.57
2022-08-05T12:16:15.398Z,11.05
2022-08-05T12:18:49.305Z,11.30
2022-08-05T12:21:23.939Z,11.90
2022-08-05T12:23:59.961Z,12.40
2022-08-05T12:26:36.418Z,12.93
2022-08-05T12:29:09.458Z,11.85
2022-08-05T12:31:43.679Z,11.82
2022-08-05T12:34:20.528Z,11.98
2022-08-05T12:36:51.741Z,11.63
2022-08-05T12:39:20.186Z,12.13
2022-08-05T12:41:48.705Z,9.15
2022-08-05T12:44:21.882Z,7.75
2022-08-05T12:47:02.727Z,7.40
2022-08-05T12:50:01.969Z,7.15
2022-08-05T12:52:39.425Z,6.70
2022-08-05T12:55:22.786Z,5.45
2022-08-05T12:58:52.568Z,4.97
2022-08-05T13:02:00.938Z,4.45
2022-08-05T13:03:33.144Z,4.05
2022-08-05T13:06:02.800Z,4.28
2022-08-05T13:08:32.778Z,4.15
2022-08-05T13:11:01.971Z,4.20
2022-08-05T13:14:04.607Z,4.15
2022-08-05T13:16:24.990Z,4.25
2022-08-05T13:18:57.908Z,3.70
2022-08-05T13:21:37.661Z,3.33
2022-08-05T13:24:08.709Z,3.10
2022-08-05T13:26:37.164Z,3.40
2022-08-05T13:29:05.583Z,3.03
2022-08-05T13:32:04.885Z,3.28
2022-08-05T13:34:25.903Z,2.67
2022-08-05T13:36:55.797Z,4.35
2022-08-05T13:39:24.630Z,2.55
2022-08-05T13:42:14.552Z,3.03
2022-08-05T13:44:45.677Z,1.92
2022-08-05T13:47:36.040Z,1.88
2022-08-05T13:50:04.610Z,1.98
2022-08-05T13:52:35.953Z,1.80
2022-08-05T13:55:07.382Z,1.65
2022-08-05T13:57:50.952Z,1.60
2022-08-05T14:00:27.650Z,2.40
2022-08-05T14:02:56.972Z,1.48
2022-08-05T14:05:29.393Z,1.60
2022-08-05T14:08:20.809Z,1.90
2022-08-05T14:11:03.261Z,3.47
2022-08-05T14:13:48.295Z,2.03
2022-08-05T14:16:16.760Z,1.85
2022-08-05T14:18:45.238Z,1.85
2022-08-05T14:22:07.203Z,3.15
2022-08-05T14:24:02.760Z,2.03
2022-08-05T14:26:36.957Z,2.67
2022-08-05T14:29:16.737Z,1.50
2022-08-05T14:32:02.672Z,2.88
2022-08-05T14:34:35.254Z,1.88
2022-08-05T14:37:04.205Z,3.53
2022-08-05T14:39:50.120Z,2.28
2022-08-05T14:42:22.962Z,3.85
2022-08-05T14:44:53.272Z,2.60
2022-08-05T14:48:02.461Z,3.20
2022-08-05T14:50:17.708Z,2.67
2022-08-05T14:52:53.392Z,2.67
2022-08-05T14:55:38.759Z,4.75
2022-08-05T14:58:11.296Z,3.88
2022-08-05T15:00:58.680Z,3.55
2022-08-05T15:03:33.095Z,4.05
2022-08-05T15:06:08.030Z,3.80
2022-08-05T15:09:01.520Z,2.70
2022-08-05T15:11:52.793Z,3.78
2022-08-05T15:14:33.584Z,4.07
2022-08-05T15:17:05.400Z,4.32
2022-08-05T15:19:38.178Z,2.80
2022-08-05T15:22:08.780Z,4.68
2022-08-05T15:24:39.630Z,2.45
2022-08-05T15:27:09.325Z,4.78
2022-08-05T15:29:41.772Z,2.65
2022-08-05T15:32:10.322Z,2.13
2022-08-05T15:34:38.609Z,1.98
2022-08-05T15:37:14.858Z,2.85
2022-08-05T15:40:58.761Z,3.33
2022-08-05T15:42:55.195Z,2.25
2022-08-05T15:45:37.130Z,2.97
2022-08-05T15:48:07.052Z,3.10
2022-08-05T15:50:35.142Z,3.08
2022-08-05T15:53:05.581Z,2.28
2022-08-05T15:56:02.686Z,2.17
2022-08-05T15:58:23.428Z,1.90
2022-08-05T16:01:11.735Z,1.90
2022-08-05T16:03:41.071Z,5.07
2022-08-05T16:06:11.239Z,4.80
2022-08-05T16:08:40.116Z,2.70
2022-08-05T16:11:08.471Z,3.60
2022-08-05T16:13:38.043Z,3.85
2022-08-05T16:16:06.962Z,3.05
2022-08-05T16:18:52.805Z,4.47
2022-08-05T16:21:58.705Z,3.38
2022-08-05T16:24:12.886Z,2.97
2022-08-05T16:26:58.936Z,2.45
2022-08-05T16:29:31.227Z,2.50
2022-08-05T16:32:06.462Z,6.97
2022-08-05T16:34:39.351Z,3.97
2022-08-05T16:38:03.007Z,8.15
2022-08-05T16:40:04.584Z,2.10
2022-08-05T16:42:36.017Z,2.80
2022-08-05T16:46:03.761Z,3.35
2022-08-05T16:47:58.469Z,2.50
2022-08-05T16:50:30.503Z,3.70
2022-08-05T16:53:12.061Z,3.53
2022-08-05T16:55:48.419Z,3.22
2022-08-05T16:58:19.849Z,2.47
2022-08-05T17:00:49.789Z,4.50
2022-08-05T17:03:20.623Z,4.60
2022-08-05T17:05:53.916Z,7.10
2022-08-05T17:08:35.757Z,7.32
2022-08-05T17:11:12.845Z,4.00
2022-08-05T17:13:45.392Z,4.57
2022-08-05T17:16:33.688Z,3.45
2022-08-05T17:19:03.212Z,2.72
2022-08-05T17:21:37.021Z,6.28
2022-08-05T17:24:18.397Z,3.92
2022-08-05T17:26:49.196Z,3.67
2022-08-05T17:29:17.272Z,4.78
2022-08-05T17:31:58.653Z,3.88
2022-08-05T17:34:29.895Z,3.63
2022-08-05T17:37:00.642Z,4.38
2022-08-05T17:39:33.186Z,5.63
2022-08-05T17:42:28.612Z,3.90
2022-08-05T17:44:51.593Z,3.45
2022-08-05T17:47:22.160Z,5.90
2022-08-05T17:49:59.800Z,3.33
2022-08-05T17:52:29.475Z,3.80
2022-08-05T17:54:57.548Z,4.30
2022-08-05T17:57:25.601Z,3.92
2022-08-05T18:00:03.538Z,4.03
2022-08-05T18:02:35.580Z,4.70
2022-08-05T18:05:07.570Z,4.68
2022-08-05T18:07:41.503Z,3.88
2022-08-05T18:10:14.102Z,6.72
2022-08-05T18:12:49.491Z,3.72
2022-08-05T18:15:17.581Z,3.97
2022-08-05T18:18:01.553Z,2.97
2022-08-05T18:20:32.986Z,4.57
2022-08-05T18:23:11.206Z,4.57
2022-08-05T18:25:45.578Z,3.50
2022-08-05T18:28:16.597Z,2.53
2022-08-05T18:30:45.413Z,2.85
2022-08-05T18:33:22.741Z,2.50
2022-08-05T18:36:03.500Z,4.38
2022-08-05T18:38:35.785Z,5.03
2022-08-05T18:41:57.045Z,4.18
2022-08-05T18:43:52.307Z,2.50
2022-08-05T18:46:20.792Z,3.75
2022-08-05T18:48:51.790Z,4.28
2022-08-05T18:52:02.697Z,3.20
2022-08-05T18:54:26.484Z,3.78
2022-08-05T18:56:57.194Z,5.55
2022-08-05T18:59:42.811Z,5.75
2022-08-05T19:02:27.985Z,3.40
2022-08-05T19:06:05.736Z,3.17
2022-08-05T19:07:50.251Z,2.58
2022-08-05T19:10:27.954Z,7.97
2022-08-05T19:12:56.702Z,4.38
2022-08-05T19:15:57.128Z,3.28
2022-08-05T19:18:21.988Z,4.20
2022-08-05T19:20:53.112Z,5.30
2022-08-05T19:24:03.689Z,5.88
2022-08-05T19:26:11.787Z,6.75
2022-08-05T19:28:42.183Z,3.47
2022-08-05T19:31:13.533Z,5.82
2022-08-05T19:33:48.207Z,3.00
2022-08-05T19:36:26.077Z,4.90
2022-08-05T19:39:01.095Z,5.60
2022-08-05T19:41:58.541Z,5.40
2022-08-05T19:44:19.044Z,3.05
2022-08-05T19:46:47.464Z,3.63
2022-08-05T19:49:18.433Z,3.70
2022-08-05T19:52:08.431Z,5.60
2022-08-05T19:54:36.942Z,4.70
2022-08-05T19:57:09.730Z,6.13
2022-08-05T19:59:56.334Z,6.18
2022-08-05T20:02:30.438Z,6.35
2022-08-05T20:04:59.967Z,3.42
2022-08-05T20:07:46.214Z,3.60
2022-08-05T20:10:19.429Z,3.97
2022-08-05T20:12:50.761Z,5.03
2022-08-05T20:15:48.043Z,5.72
2022-08-05T20:18:10.819Z,3.85
2022-08-05T20:20:57.617Z,3.70
2022-08-05T20:23:39.873Z,3.60
2022-08-05T20:26:19.488Z,6.00
2022-08-05T20:28:50.411Z,3.88
2022-08-05T20:31:23.069Z,5.10
2022-08-05T20:34:05.208Z,3.25
2022-08-05T20:36:33.232Z,3.30
2022-08-05T20:39:03.325Z,5.30
2022-08-05T20:41:44.549Z,5.57
2022-08-05T20:44:19.328Z,4.80
2022-08-05T20:46:57.919Z,6.57
2022-08-05T20:49:26.388Z,3.45
2022-08-05T20:51:54.745Z,4.13
2022-08-05T20:54:25.416Z,3.78
2022-08-05T20:56:53.542Z,5.63
2022-08-05T20:59:26.943Z,4.32
2022-08-05T21:02:10.183Z,4.20
2022-08-05T21:04:39.078Z,8.35
2022-08-05T21:07:08.913Z,4.50
2022-08-05T21:09:38.467Z,3.83
2022-08-05T21:12:21.639Z,4.03
2022-08-05T21:14:54.209Z,3.58
2022-08-05T21:17:25.697Z,2.25
2022-08-05T21:19:56.448Z,3.20
2022-08-05T21:22:26.994Z,4.00
2022-08-05T21:24:57.760Z,2.70
2022-08-05T21:27:27.410Z,2.40
2022-08-05T21:29:56.569Z,3.92
2022-08-05T21:32:26.639Z,3.42
2022-08-05T21:35:17.284Z,2.50
2022-08-05T21:37:47.294Z,4.40
2022-08-05T21:40:23.678Z,1.83
2022-08-05T21:42:53.614Z,2.55
2022-08-05T21:45:24.967Z,5.43
2022-08-05T21:48:08.224Z,4.57
2022-08-05T21:50:37.366Z,3.78
2022-08-05T21:53:17.706Z,4.75
2022-08-05T21:56:04.647Z,2.83
2022-08-05T21:58:34.804Z,1.88
2022-08-05T22:01:05.607Z,1.85
2022-08-05T22:03:48.596Z,3.78
2022-08-05T22:06:22.897Z,3.17
2022-08-05T22:09:13.721Z,2.65
2022-08-05T22:11:47.202Z,5.95
2022-08-05T22:14:35.471Z,4.00
2022-08-05T22:17:06.667Z,3.15
2022-08-05T22:20:00.190Z,2.70
2022-08-05T22:22:28.011Z,2.58
2022-08-05T22:25:21.342Z,2.25
2022-08-05T22:28:08.219Z,3.47
2022-08-05T22:30:55.482Z,3.10
2022-08-05T22:33:57.631Z,5.35
2022-08-05T22:36:14.605Z,3.40
2022-08-05T22:38:43.813Z,3.83
2022-08-05T22:41:16.755Z,2.83
2022-08-05T22:44:06.726Z,3.07
2022-08-05T22:46:39.979Z,3.23
2022-08-05T22:49:23.590Z,1.80
2022-08-05T22:52:05.693Z,3.10
2022-08-05T22:54:35.873Z,3.50
2022-08-05T22:57:04.019Z,4.03
2022-08-05T22:59:48.576Z,3.10
2022-08-05T23:02:29.076Z,3.73
2022-08-05T23:05:01.854Z,4.70
2022-08-05T23:07:45.273Z,4.70
2022-08-05T23:10:20.125Z,2.53
2022-08-05T23:12:51.092Z,2.67
2022-08-05T23:15:21.395Z,3.83
2022-08-05T23:18:00.452Z,5.28
2022-08-05T23:20:31.488Z,5.57
2022-08-05T23:23:00.450Z,2.47
2022-08-05T23:25:52.672Z,2.43
2022-08-05T23:28:19.714Z,3.33
2022-08-05T23:30:52.800Z,3.53
2022-08-05T23:33:26.443Z,2.30
2022-08-05T23:36:10.661Z,3.77
2022-08-05T23:38:38.817Z,5.00
2022-08-05T23:41:07.130Z,4.90
2022-08-05T23:44:03.212Z,3.30
2022-08-05T23:46:26.392Z,2.40
2022-08-05T23:49:00.817Z,3.10
2022-08-05T23:51:54.142Z,2.70
2022-08-05T23:54:25.578Z,2.60
2022-08-05T23:56:55.505Z,2.27
2022-08-05T23:59:27.758Z,1.70
